createdAt,value
2018-10-12T00:03:52.315Z,15.1
2018-10-12T00:08:50.268Z,14.5
2018-10-12T00:13:48.101Z,15.1
2018-10-12T00:18:44.986Z,15
2018-10-12T00:23:42.453Z,15
2018-10-12T00:28:40.369Z,14.3
2018-10-12T00:33:40.054Z,15
2018-10-12T00:38:43.767Z,14.4
2018-10-12T00:43:39.880Z,14.1
2018-10-12T00:48:37.235Z,14.9
2018-10-12T00:53:34.881Z,14.9
2018-10-12T00:58:32.905Z,14.9
2018-10-12T01:03:30.942Z,14.8
2018-10-12T01:08:35.154Z,14.8
2018-10-12T01:13:30.782Z,14.1
2018-10-12T01:18:30.185Z,14.7
2018-10-12T01:23:28.104Z,13.9
2018-10-12T01:28:28.870Z,13.9
2018-10-12T01:33:25.617Z,14
2018-10-12T01:38:23.177Z,13.9
2018-10-12T01:43:20.669Z,13.9
2018-10-12T01:48:18.127Z,13.9
2018-10-12T01:53:16.311Z,14.5
2018-10-12T01:58:14.847Z,14.4
2018-10-12T02:03:11.647Z,14.5
2018-10-12T02:08:09.010Z,14.5
2018-10-12T02:13:06.833Z,13.7
2018-10-12T02:18:05.622Z,14.4
2018-10-12T02:23:03.715Z,14.4
2018-10-12T02:28:01.949Z,14.5
2018-10-12T02:33:04.037Z,13.7
2018-10-12T02:38:00.045Z,13.7
2018-10-12T02:42:57.460Z,14.4
2018-10-12T02:47:54.661Z,14.4
2018-10-12T02:52:52.436Z,13.7
2018-10-12T02:57:49.857Z,13.6
2018-10-12T03:02:46.960Z,14.3
2018-10-12T03:07:43.998Z,13.6
2018-10-12T03:12:41.275Z,14.3
2018-10-12T03:17:38.857Z,13.6
2018-10-12T03:22:36.895Z,13.3
2018-10-12T03:27:34.733Z,14.2
2018-10-12T03:32:33.366Z,14.2
2018-10-12T03:37:30.641Z,13.4
2018-10-12T03:42:28.235Z,13.5
2018-10-12T03:47:26.475Z,14.2
2018-10-12T03:52:36.048Z,14.2
2018-10-12T03:57:30.761Z,13.4
2018-10-12T04:02:27.727Z,14.1
2018-10-12T04:07:26.276Z,14.1
2018-10-12T04:12:23.061Z,13.4
2018-10-12T04:17:20.162Z,14.1
2018-10-12T04:22:21.289Z,13.4
2018-10-12T04:27:18.591Z,13.5
2018-10-12T04:32:15.508Z,14.1
2018-10-12T04:37:13.012Z,13.5
2018-10-12T04:42:10.709Z,13.5
2018-10-12T04:47:09.040Z,14.3
2018-10-12T04:52:07.433Z,13.6
2018-10-12T04:57:05.033Z,13.7
2018-10-12T05:02:02.667Z,13.7
2018-10-12T05:07:00.424Z,13.8
2018-10-12T05:11:58.692Z,14.4
2018-10-12T05:16:56.368Z,14.4
2018-10-12T05:21:53.198Z,14.4
2018-10-12T05:26:50.785Z,13.7
2018-10-12T05:31:48.274Z,14.4
2018-10-12T05:36:46.229Z,14.4
2018-10-12T05:41:45.526Z,14
2018-10-12T05:46:42.809Z,14.6
2018-10-12T05:51:41.224Z,14.7
2018-10-12T05:56:38.915Z,6.3
2018-10-12T06:01:37.052Z,14.1
2018-10-12T06:06:39.470Z,14.2
2018-10-12T06:11:35.480Z,15
2018-10-12T06:16:32.654Z,14
2018-10-12T06:21:29.891Z,14.4
2018-10-12T06:26:26.743Z,15.1
2018-10-12T06:31:24.127Z,15.1
2018-10-12T06:36:21.319Z,14.4
2018-10-12T06:41:18.861Z,14.3
2018-10-12T06:46:15.679Z,14.4
2018-10-12T06:51:12.945Z,15.1
2018-10-12T06:56:10.146Z,15.1
2018-10-12T07:01:07.282Z,15.1
2018-10-12T07:06:04.262Z,14.5
2018-10-12T07:11:01.124Z,15.2
2018-10-12T07:15:58.248Z,15.2
2018-10-12T07:20:54.863Z,15.3
2018-10-12T07:25:51.974Z,15.4
2018-10-12T07:30:48.949Z,14.7
2018-10-12T07:35:46.460Z,14.9
2018-10-12T07:40:43.500Z,15.6
2018-10-12T07:45:40.793Z,15.7
2018-10-12T07:50:37.975Z,15.7
2018-10-12T07:55:35.668Z,15.1
2018-10-12T08:00:34.659Z,15.2
2018-10-12T08:05:31.202Z,15.9
2018-10-12T08:10:29.386Z,15.3
2018-10-12T08:15:26.040Z,16
2018-10-12T08:20:23.092Z,15.4
2018-10-12T08:25:20.903Z,15.9
2018-10-12T08:30:18.128Z,15.6
2018-10-12T08:35:15.139Z,15.6
2018-10-12T08:40:12.112Z,15.8
2018-10-12T08:45:09.673Z,16.5
2018-10-12T08:50:07.564Z,15.9
2018-10-12T08:55:04.984Z,16.1
2018-10-12T09:00:02.717Z,16.7
2018-10-12T09:04:59.655Z,16.8
2018-10-12T09:09:57.275Z,16.9
2018-10-12T09:14:54.939Z,16.4
2018-10-12T09:19:52.549Z,17.1
2018-10-12T09:24:50.301Z,16.5
2018-10-12T09:29:47.350Z,17.3
2018-10-12T09:34:46.651Z,16.8
2018-10-12T09:39:43.980Z,16.7
2018-10-12T09:44:41.778Z,17.8
2018-10-12T09:49:39.846Z,17.5
2018-10-12T09:54:37.874Z,17.9
2018-10-12T09:59:34.751Z,18.1
2018-10-12T10:04:32.399Z,18.3
2018-10-12T10:09:29.586Z,18.4
2018-10-12T10:14:26.589Z,18.3
2018-10-12T10:19:26.620Z,18.4
2018-10-12T10:24:22.878Z,18.6
2018-10-12T10:29:20.089Z,18.7
2018-10-12T10:34:17.151Z,14.3
2018-10-12T10:39:14.306Z,18.7
2018-10-12T10:44:11.413Z,18.7
2018-10-12T10:49:08.612Z,18.6
2018-10-12T10:54:05.878Z,18.8
2018-10-12T10:59:03.008Z,19.6
2018-10-12T11:04:00.069Z,19.8
2018-10-12T11:08:57.184Z,19.2
2018-10-12T11:13:54.474Z,19.3
2018-10-12T11:18:51.620Z,19.4
2018-10-12T11:23:49.151Z,20.1
2018-10-12T11:28:47.412Z,20.3
2018-10-12T11:33:44.077Z,20.6
2018-10-12T11:38:41.532Z,16.4
2018-10-12T11:43:39.212Z,20.9
2018-10-12T11:48:37.125Z,20.2
2018-10-12T11:53:33.701Z,21.1
2018-10-12T11:58:32.187Z,21.2
2018-10-12T12:03:28.867Z,20.7
2018-10-12T12:08:26.208Z,21.4
2018-10-12T12:13:23.508Z,20.9
2018-10-12T12:18:21.734Z,21.3
2018-10-12T12:23:19.397Z,21.2
2018-10-12T12:28:17.683Z,21.3
2018-10-12T12:33:16.458Z,21.4
2018-10-12T12:38:14.308Z,21.3
2018-10-12T12:43:14.433Z,20.1
2018-10-12T12:48:11.351Z,20.3
2018-10-12T12:53:08.544Z,20.2
2018-10-12T12:58:06.344Z,20.9
2018-10-12T13:03:03.345Z,20.4
2018-10-12T13:08:05.343Z,19.6
2018-10-12T13:13:01.813Z,20.2
2018-10-12T13:17:58.836Z,20.8
2018-10-12T13:22:56.788Z,20
2018-10-12T13:27:55.253Z,20.3
2018-10-12T13:32:51.818Z,20
2018-10-12T13:37:49.034Z,20
2018-10-12T13:42:44.519Z,20.5
2018-10-12T13:47:41.224Z,19.8
2018-10-12T13:52:38.172Z,19.8
2018-10-12T13:57:36.349Z,19.7
2018-10-12T14:02:33.539Z,19.6
2018-10-12T14:07:30.362Z,20.2
2018-10-12T14:12:28.298Z,19.5
2018-10-12T14:17:24.809Z,19.4
2018-10-12T14:22:22.424Z,19.9
2018-10-12T14:27:19.060Z,19
2018-10-12T14:32:16.434Z,19.8
2018-10-12T14:37:13.348Z,19.7
2018-10-12T14:42:10.386Z,19
2018-10-12T14:47:07.139Z,19
2018-10-12T14:52:04.543Z,19.5
2018-10-12T14:57:01.399Z,18.7
2018-10-12T15:01:59.329Z,19.3
2018-10-12T15:06:57.785Z,19.3
2018-10-12T15:11:56.106Z,18.4
2018-10-12T15:16:53.442Z,19.1
2018-10-12T15:21:50.163Z,18.4
2018-10-12T15:26:47.716Z,18.3
2018-10-12T15:31:44.784Z,18.9
2018-10-12T15:36:43.422Z,18.9
2018-10-12T15:41:40.271Z,18.8
2018-10-12T15:46:38.145Z,18.5
2018-10-12T15:51:35.482Z,18.6
2018-10-12T15:56:33.300Z,18.5
2018-10-12T16:01:30.512Z,17.8
2018-10-12T16:06:28.077Z,17.3
2018-10-12T16:11:25.387Z,17.7
2018-10-12T16:16:22.785Z,18.3
2018-10-12T16:21:19.346Z,17.6
2018-10-12T16:26:16.947Z,18.2
2018-10-12T16:31:14.322Z,18.1
2018-10-12T16:36:11.816Z,18.1
2018-10-12T16:41:08.767Z,17.4
2018-10-12T16:46:05.495Z,18
2018-10-12T16:51:02.924Z,18
2018-10-12T16:56:00.154Z,17.3
2018-10-12T17:00:57.093Z,17.9
2018-10-12T17:05:53.714Z,17.9
2018-10-12T17:10:50.890Z,17.8
2018-10-12T17:15:48.837Z,17.2
2018-10-12T17:20:45.622Z,17.8
2018-10-12T17:25:42.896Z,17.8
2018-10-12T17:30:40.520Z,17.8
2018-10-12T17:35:37.743Z,17.8
2018-10-12T17:40:35.195Z,16.5
2018-10-12T17:45:32.581Z,17
2018-10-12T17:50:29.792Z,17.7
2018-10-12T17:55:27.217Z,17.7
2018-10-12T18:00:25.224Z,17
2018-10-12T18:05:22.582Z,17.7
2018-10-12T18:10:20.439Z,17
2018-10-12T18:15:17.154Z,17.7
2018-10-12T18:20:14.056Z,17.7
2018-10-12T18:25:10.724Z,17.7
2018-10-12T18:30:07.891Z,17
2018-10-12T18:35:04.914Z,17.7
2018-10-12T18:40:03.021Z,16.7
2018-10-12T18:45:06.318Z,17.6
2018-10-12T18:50:02.162Z,17.6
2018-10-12T18:54:59.560Z,17.6
2018-10-12T18:59:57.719Z,16.9
2018-10-12T19:04:54.544Z,17.5
2018-10-12T19:09:53.199Z,16.8
2018-10-12T19:14:50.421Z,17.5
2018-10-12T19:19:49.002Z,14.3
2018-10-12T19:24:45.629Z,17.4
2018-10-12T19:29:42.647Z,17.4
2018-10-12T19:34:39.813Z,17.4
2018-10-12T19:39:36.957Z,17.3
2018-10-12T19:44:33.923Z,17.3
2018-10-12T19:49:30.665Z,17.3
2018-10-12T19:54:27.603Z,17.2
2018-10-12T19:59:25.493Z,16.5
2018-10-12T20:04:22.470Z,16.5
2018-10-12T20:09:20.160Z,16.4
2018-10-12T20:14:17.006Z,16.4
2018-10-12T20:19:14.134Z,17
2018-10-12T20:24:11.239Z,17
2018-10-12T20:29:08.301Z,17
2018-10-12T20:34:06.745Z,16.3
2018-10-12T20:39:03.597Z,16.3
2018-10-12T20:44:00.715Z,16.9
2018-10-12T20:48:57.651Z,16.9
2018-10-12T20:53:56.948Z,16.9
2018-10-12T20:58:53.925Z,16.9
2018-10-12T21:03:51.104Z,16.8
2018-10-12T21:08:47.917Z,16.8
2018-10-12T21:13:46.253Z,16.1
2018-10-12T21:18:43.702Z,16.8
2018-10-12T21:23:40.623Z,16.7
2018-10-12T21:28:39.558Z,16
2018-10-12T21:33:36.354Z,16.6
2018-10-12T21:38:33.053Z,16.6
2018-10-12T21:43:29.775Z,16.6
2018-10-12T21:48:26.634Z,15.9
2018-10-12T21:53:23.886Z,16.6
2018-10-12T21:58:21.467Z,16.5
2018-10-12T22:03:18.887Z,16.5
2018-10-12T22:08:18.147Z,15.8
2018-10-12T22:13:15.374Z,15.8
2018-10-12T22:18:12.283Z,16.5
2018-10-12T22:23:09.483Z,16.4
2018-10-12T22:28:06.605Z,16.4
2018-10-12T22:33:03.590Z,16.1
2018-10-12T22:38:01.553Z,15.7
2018-10-12T22:42:58.527Z,15.7
2018-10-12T22:47:56.672Z,16.3
2018-10-12T22:52:54.739Z,16.3
2018-10-12T22:57:52.621Z,15.6
2018-10-12T23:02:49.525Z,16.3
2018-10-12T23:07:46.354Z,16.3
2018-10-12T23:12:43.328Z,16.2
2018-10-12T23:17:39.644Z,15.2
2018-10-12T23:22:36.361Z,16.1
2018-10-12T23:27:33.263Z,16.1
2018-10-12T23:32:30.527Z,15.4
2018-10-12T23:37:27.112Z,16
2018-10-12T23:42:24.265Z,15.9
2018-10-12T23:47:21.761Z,15.9
2018-10-12T23:52:19.193Z,15.2
2018-10-12T23:57:17.852Z,15.8
